createdAt,value
2023-04-25T00:00:10.494Z,98634.13
2023-04-25T00:02:42.796Z,98638.50
2023-04-25T00:05:12.064Z,98633.44
2023-04-25T00:07:43.304Z,98640.31
2023-04-25T00:10:13.224Z,98639.53
2023-04-25T00:12:42.750Z,98635.19
2023-04-25T00:15:12.667Z,98636.81
2023-04-25T00:17:41.164Z,98627.41
2023-04-25T00:20:11.355Z,98633.44
2023-04-25T00:22:42.475Z,98633.50
2023-04-25T00:25:11.724Z,98624.19
2023-04-25T00:27:40.603Z,98624.91
2023-04-25T00:30:10.697Z,98624.91
2023-04-25T00:32:39.882Z,98628.38
2023-04-25T00:35:09.172Z,98634.41
2023-04-25T00:37:38.268Z,98626.00
2023-04-25T00:40:09.903Z,98625.09
2023-04-25T00:42:40.131Z,98623.47
2023-04-25T00:45:12.961Z,98631.97
2023-04-25T00:47:42.856Z,98632.06
2023-04-25T00:50:11.924Z,98630.41
2023-04-25T00:52:46.096Z,98630.44
2023-04-25T00:55:17.089Z,98625.25
2023-04-25T00:57:46.076Z,98635.41
2023-04-25T01:00:15.975Z,98627.81
2023-04-25T01:02:48.056Z,98628.59
2023-04-25T01:05:16.972Z,98630.38
2023-04-25T01:07:46.143Z,98632.13
2023-04-25T01:10:17.084Z,98633.88
2023-04-25T01:12:45.911Z,98628.75
2023-04-25T01:15:15.150Z,98628.75
2023-04-25T01:17:45.505Z,98632.13
2023-04-25T01:20:16.448Z,98632.06
2023-04-25T01:22:47.450Z,98632.06
2023-04-25T01:25:18.464Z,98627.97
2023-04-25T01:27:48.324Z,98632.06
2023-04-25T01:30:18.026Z,98634.56
2023-04-25T01:32:47.185Z,98630.50
2023-04-25T01:35:16.469Z,98630.50
2023-04-25T01:37:47.662Z,98630.56
2023-04-25T01:40:17.152Z,98622.09
2023-04-25T01:42:47.444Z,98622.09
2023-04-25T01:45:16.787Z,98618.69
2023-04-25T01:47:50.328Z,98618.84
2023-04-25T01:50:21.303Z,98624.00
2023-04-25T01:52:53.036Z,98624.91
2023-04-25T01:55:22.355Z,98632.56
2023-04-25T01:57:59.737Z,98629.13
2023-04-25T02:00:44.571Z,98625.72
2023-04-25T02:03:13.496Z,98624.91
2023-04-25T02:05:42.693Z,98635.19
2023-04-25T02:08:16.423Z,98631.78
2023-04-25T02:10:45.395Z,98638.56
2023-04-25T02:13:20.262Z,98631.81
2023-04-25T02:15:59.658Z,98629.31
2023-04-25T02:18:28.797Z,98632.72
2023-04-25T02:20:57.660Z,98636.19
2023-04-25T02:23:28.073Z,98638.78
2023-04-25T02:25:58.539Z,98635.38
2023-04-25T02:28:28.115Z,98637.13
2023-04-25T02:30:57.249Z,98629.53
2023-04-25T02:33:27.235Z,98636.38
2023-04-25T02:35:56.115Z,98629.63
2023-04-25T02:38:24.950Z,98625.41
2023-04-25T02:40:55.124Z,98629.63
2023-04-25T02:43:24.606Z,98628.81
2023-04-25T02:45:54.755Z,98622.06
2023-04-25T02:48:23.577Z,98624.66
2023-04-25T02:50:52.408Z,98624.66
2023-04-25T02:53:21.272Z,98621.31
2023-04-25T02:55:53.983Z,98617.97
2023-04-25T02:58:24.444Z,98619.66
2023-04-25T03:00:56.099Z,98606.22
2023-04-25T03:03:25.272Z,98611.34
2023-04-25T03:05:54.861Z,98614.81
2023-04-25T03:08:33.537Z,98614.88
2023-04-25T03:11:03.304Z,98612.34
2023-04-25T03:13:33.454Z,98609.78
2023-04-25T03:16:02.519Z,98612.28
2023-04-25T03:18:32.764Z,98607.13
2023-04-25T03:21:01.886Z,98613.03
2023-04-25T03:23:30.649Z,98607.97
2023-04-25T03:25:59.532Z,98606.28
2023-04-25T03:28:28.296Z,98603.69
2023-04-25T03:31:00.318Z,98597.63
2023-04-25T03:33:29.214Z,98594.13
2023-04-25T03:35:58.017Z,98595.03
2023-04-25T03:38:27.575Z,98596.78
2023-04-25T03:40:57.442Z,98599.38
2023-04-25T03:43:34.823Z,98601.09
2023-04-25T03:46:10.217Z,98601.97
2023-04-25T03:48:40.139Z,98601.97
2023-04-25T03:51:11.401Z,98607.97
2023-04-25T03:53:44.605Z,98612.25
2023-04-25T03:56:24.672Z,98614.03
2023-04-25T03:59:02.206Z,98618.31
2023-04-25T04:01:34.208Z,98618.31
2023-04-25T04:04:03.086Z,98621.78
2023-04-25T04:06:32.135Z,98623.47
2023-04-25T04:09:12.404Z,98621.72
2023-04-25T04:11:46.358Z,98623.41
2023-04-25T04:14:15.594Z,98623.47
2023-04-25T04:16:49.109Z,98631.19
2023-04-25T04:19:18.135Z,98629.44
2023-04-25T04:21:54.043Z,98633.75
2023-04-25T04:24:23.369Z,98627.75
2023-04-25T04:26:58.152Z,98638.78
2023-04-25T04:29:38.206Z,98633.75
2023-04-25T04:32:15.018Z,98635.47
2023-04-25T04:34:45.005Z,98635.41
2023-04-25T04:37:17.704Z,98630.34
2023-04-25T04:39:46.696Z,98633.81
2023-04-25T04:42:26.576Z,98635.53
2023-04-25T04:45:07.387Z,98635.53
2023-04-25T04:47:57.922Z,98634.59
2023-04-25T04:50:37.961Z,98632.97
2023-04-25T04:53:29.772Z,98637.16
2023-04-25T04:56:11.287Z,98632.06
2023-04-25T04:58:51.589Z,98638.84
2023-04-25T05:01:37.591Z,98634.56
2023-04-25T05:04:13.774Z,98633.75
2023-04-25T05:06:54.166Z,98644.69
2023-04-25T05:09:43.520Z,98638.00
2023-04-25T05:12:23.401Z,98641.41
2023-04-25T05:15:03.376Z,98644.81
2023-04-25T05:17:44.712Z,98650.72
2023-04-25T05:20:40.912Z,98650.72
2023-04-25T05:23:36.056Z,98638.78
2023-04-25T05:26:25.127Z,98642.03
2023-04-25T05:29:14.274Z,98647.09
2023-04-25T05:31:54.229Z,98646.16
2023-04-25T05:34:22.739Z,98645.31
2023-04-25T05:37:01.419Z,98646.09
2023-04-25T05:39:31.267Z,98652.78
2023-04-25T05:42:11.595Z,98642.50
2023-04-25T05:44:51.424Z,98645.03
2023-04-25T05:47:46.487Z,98650.16
2023-04-25T05:50:27.005Z,98656.88
2023-04-25T05:53:00.356Z,98657.69
2023-04-25T05:55:34.824Z,98658.44
2023-04-25T05:58:13.167Z,98649.75
2023-04-25T06:00:43.170Z,98660.72
2023-04-25T06:03:12.124Z,98654.72
2023-04-25T06:05:41.214Z,98658.03
2023-04-25T06:08:12.255Z,98658.03
2023-04-25T06:10:41.130Z,98656.16
2023-04-25T06:13:09.835Z,98657.88
2023-04-25T06:15:39.268Z,98662.00
2023-04-25T06:18:08.197Z,98661.91
2023-04-25T06:20:37.151Z,98655.81
2023-04-25T06:23:05.997Z,98655.78
2023-04-25T06:25:50.443Z,98660.81
2023-04-25T06:28:19.699Z,98651.38
2023-04-25T06:30:48.559Z,98656.41
2023-04-25T06:33:21.351Z,98663.97
2023-04-25T06:35:51.957Z,98662.16
2023-04-25T06:38:25.885Z,98663.03
2023-04-25T06:40:57.943Z,98664.03
2023-04-25T06:43:29.987Z,98663.91
2023-04-25T06:45:58.833Z,98664.63
2023-04-25T06:48:31.357Z,98658.66
2023-04-25T06:51:01.199Z,98658.66
2023-04-25T06:53:30.515Z,98662.25
2023-04-25T06:56:05.725Z,98668.41
2023-04-25T06:58:48.248Z,98661.03
2023-04-25T07:01:24.996Z,98664.53
2023-04-25T07:03:53.958Z,98668.09
2023-04-25T07:06:22.969Z,98669.03
2023-04-25T07:08:51.944Z,98667.28
2023-04-25T07:11:22.351Z,98670.78
2023-04-25T07:13:51.471Z,98670.00
2023-04-25T07:16:20.255Z,98666.44
2023-04-25T07:18:50.292Z,98668.06
2023-04-25T07:21:19.286Z,98676.44
2023-04-25T07:23:49.980Z,98676.38
2023-04-25T07:26:24.621Z,98681.50
2023-04-25T07:29:19.652Z,98678.19
2023-04-25T07:31:48.686Z,98680.69
2023-04-25T07:34:17.300Z,98678.41
2023-04-25T07:36:46.953Z,98685.22
2023-04-25T07:39:21.138Z,98685.28
2023-04-25T07:41:55.636Z,98686.97
2023-04-25T07:44:31.828Z,98686.19
2023-04-25T07:47:02.447Z,98681.88
2023-04-25T07:49:33.535Z,98678.25
2023-04-25T07:52:03.191Z,98668.78
2023-04-25T07:54:32.259Z,98678.25
2023-04-25T07:57:08.794Z,98664.78
2023-04-25T07:59:39.093Z,98663.88
2023-04-25T08:02:08.406Z,98655.50
2023-04-25T08:04:37.541Z,98658.97
2023-04-25T08:07:10.846Z,98657.16
2023-04-25T08:09:50.990Z,98665.50
2023-04-25T08:12:28.230Z,98668.09
2023-04-25T08:14:58.415Z,98661.19
2023-04-25T08:17:30.869Z,98641.09
2023-04-25T08:19:59.755Z,98665.56
2023-04-25T08:22:32.967Z,98654.28
2023-04-25T08:25:27.992Z,98655.50
2023-04-25T08:28:00.640Z,98656.22
2023-04-25T08:30:29.789Z,98662.03
2023-04-25T08:32:58.952Z,98662.59
2023-04-25T08:35:38.773Z,98661.56
2023-04-25T08:38:08.981Z,98666.34
2023-04-25T08:40:41.271Z,98672.88
2023-04-25T08:43:16.640Z,98671.94
2023-04-25T08:45:47.315Z,98674.75
2023-04-25T08:48:29.113Z,98675.59
2023-04-25T08:51:01.048Z,98676.22
2023-04-25T08:53:34.008Z,98671.16
2023-04-25T08:56:10.593Z,98677.88
2023-04-25T08:58:41.211Z,98677.78
2023-04-25T09:01:10.728Z,98670.13
2023-04-25T09:03:49.262Z,98674.28
2023-04-25T09:06:20.344Z,98672.59
2023-04-25T09:08:52.907Z,98681.16
2023-04-25T09:11:23.477Z,98677.50
2023-04-25T09:14:14.499Z,98680.81
2023-04-25T09:17:09.121Z,98686.69
2023-04-25T09:19:45.558Z,98683.75
2023-04-25T09:22:34.849Z,98691.97
2023-04-25T09:25:08.145Z,98684.41
2023-04-25T09:27:37.054Z,98688.94
2023-04-25T09:30:18.996Z,98685.31
2023-04-25T09:32:59.733Z,98677.19
2023-04-25T09:35:28.918Z,98681.34
2023-04-25T09:38:01.862Z,98681.59
2023-04-25T09:40:44.440Z,98680.97
2023-04-25T09:43:25.467Z,98685.22
2023-04-25T09:45:59.221Z,98680.50
2023-04-25T09:48:32.222Z,98689.56
2023-04-25T09:51:10.585Z,98687.72
2023-04-25T09:53:41.827Z,98685.09
2023-04-25T09:56:22.542Z,98685.22
2023-04-25T09:58:56.198Z,98684.63
2023-04-25T10:01:28.719Z,98684.19
2023-04-25T10:04:23.265Z,98691.59
2023-04-25T10:07:02.012Z,98694.91
2023-04-25T10:09:35.076Z,98695.63
2023-04-25T10:12:05.278Z,98689.16
2023-04-25T10:14:34.338Z,98689.06
2023-04-25T10:17:05.456Z,98688.09
2023-04-25T10:19:34.821Z,98684.69
2023-04-25T10:22:11.305Z,98684.53
2023-04-25T10:24:40.935Z,98685.81
2023-04-25T10:27:10.424Z,98674.19
2023-04-25T10:29:39.149Z,98672.69
2023-04-25T10:32:10.347Z,98675.47
2023-04-25T10:34:44.047Z,98668.13
2023-04-25T10:37:13.183Z,98677.88
2023-04-25T10:39:43.146Z,98677.56
2023-04-25T10:42:12.233Z,98678.94
2023-04-25T10:44:41.821Z,98663.47
2023-04-25T10:47:12.093Z,98675.09
2023-04-25T10:49:44.948Z,98676.06
2023-04-25T10:52:27.100Z,98673.06
2023-04-25T10:54:58.466Z,98669.88
2023-04-25T10:57:32.187Z,98680.47
2023-04-25T11:00:04.930Z,98677.72
2023-04-25T11:02:40.527Z,98676.09
2023-04-25T11:05:11.040Z,98675.34
2023-04-25T11:08:00.075Z,98666.03
2023-04-25T11:10:37.707Z,98662.50
2023-04-25T11:13:07.636Z,98668.69
2023-04-25T11:15:36.404Z,98662.69
2023-04-25T11:18:10.278Z,98663.28
2023-04-25T11:20:39.219Z,98668.00
2023-04-25T11:23:08.260Z,98659.41
2023-04-25T11:25:38.746Z,98656.38
2023-04-25T11:28:08.072Z,98661.38
2023-04-25T11:30:36.721Z,98658.66
2023-04-25T11:33:07.063Z,98670.50
2023-04-25T11:35:35.927Z,98668.63
2023-04-25T11:38:04.716Z,98659.38
2023-04-25T11:40:33.931Z,98655.22
2023-04-25T11:43:03.558Z,98629.38
2023-04-25T11:45:33.239Z,98655.13
2023-04-25T11:48:03.843Z,98654.69
2023-04-25T11:50:34.225Z,98655.25
2023-04-25T11:53:03.136Z,98662.94
2023-04-25T11:55:33.366Z,98665.94
2023-04-25T11:58:03.446Z,98660.19
2023-04-25T12:00:32.493Z,98664.41
2023-04-25T12:03:01.794Z,98655.72
2023-04-25T12:05:34.975Z,98650.91
2023-04-25T12:08:17.165Z,98651.22
2023-04-25T12:10:48.421Z,98642.50
2023-04-25T12:13:24.841Z,98638.75
2023-04-25T12:15:54.080Z,98637.22
2023-04-25T12:18:23.571Z,98631.69
2023-04-25T12:20:52.134Z,98624.16
2023-04-25T12:23:29.941Z,98611.25
2023-04-25T12:25:58.976Z,98613.06
2023-04-25T12:28:29.748Z,98612.34
2023-04-25T12:31:00.802Z,98602.53
2023-04-25T12:33:31.853Z,98603.44
2023-04-25T12:36:01.409Z,98604.41
2023-04-25T12:38:35.253Z,98593.28
2023-04-25T12:41:04.103Z,98595.28
2023-04-25T12:43:32.892Z,98592.63
2023-04-25T12:46:01.834Z,98593.41
2023-04-25T12:48:30.616Z,98593.50
2023-04-25T12:50:59.362Z,98594.34
2023-04-25T12:53:28.397Z,98590.28
2023-04-25T12:55:59.117Z,98595.19
2023-04-25T12:58:27.993Z,98590.03
2023-04-25T13:00:56.686Z,98597.59
2023-04-25T13:03:25.878Z,98594.59
2023-04-25T13:05:55.562Z,98593.38
2023-04-25T13:08:24.115Z,98599.44
2023-04-25T13:10:52.802Z,98591.72
2023-04-25T13:13:23.565Z,98592.47
2023-04-25T13:15:52.605Z,98589.38
2023-04-25T13:18:22.044Z,98593.53
2023-04-25T13:20:51.100Z,98581.47
2023-04-25T13:23:19.853Z,98581.47
2023-04-25T13:25:48.835Z,98586.59
2023-04-25T13:28:17.666Z,98586.50
2023-04-25T13:30:49.183Z,98586.81
2023-04-25T13:33:18.501Z,98594.41
2023-04-25T13:35:48.140Z,98582.47
2023-04-25T13:38:16.731Z,98599.69
2023-04-25T13:40:45.754Z,98594.66
2023-04-25T13:43:14.464Z,98608.28
2023-04-25T13:45:43.416Z,98609.16
2023-04-25T13:48:13.638Z,98610.25
2023-04-25T13:50:42.535Z,98617.34
2023-04-25T13:53:11.488Z,98616.00
2023-04-25T13:55:40.870Z,98615.41
2023-04-25T13:58:11.269Z,98615.75
2023-04-25T14:00:41.604Z,98622.84
2023-04-25T14:03:10.634Z,98623.03
2023-04-25T14:05:41.389Z,98621.56
2023-04-25T14:08:12.193Z,98627.53
2023-04-25T14:10:41.368Z,98620.63
2023-04-25T14:13:10.881Z,98617.63
2023-04-25T14:15:40.254Z,98616.19
2023-04-25T14:18:09.119Z,98617.44
2023-04-25T14:20:38.029Z,98615.31
2023-04-25T14:23:08.157Z,98615.22
2023-04-25T14:25:38.186Z,98615.44
2023-04-25T14:28:07.476Z,98613.25
2023-04-25T14:30:36.266Z,98612.75
2023-04-25T14:33:05.314Z,98611.16
2023-04-25T14:35:34.145Z,98619.88
2023-04-25T14:38:03.443Z,98623.09
2023-04-25T14:40:33.620Z,98614.78
2023-04-25T14:43:02.362Z,98617.38
2023-04-25T14:45:31.191Z,98624.47
2023-04-25T14:48:00.128Z,98611.06
2023-04-25T14:50:28.917Z,98619.66
2023-04-25T14:53:00.060Z,98618.00
2023-04-25T14:55:29.115Z,98616.22
2023-04-25T14:57:59.487Z,98621.97
2023-04-25T15:00:28.411Z,98613.78
2023-04-25T15:02:58.483Z,98613.28
2023-04-25T15:05:27.585Z,98613.28
2023-04-25T15:07:56.301Z,98614.88
2023-04-25T15:10:25.176Z,98616.44
2023-04-25T15:12:54.850Z,98621.72
2023-04-25T15:15:26.757Z,98621.03
2023-04-25T15:17:59.127Z,98617.22
2023-04-25T15:20:28.810Z,98620.19
2023-04-25T15:22:58.100Z,98626.47
2023-04-25T15:25:28.321Z,98626.47
2023-04-25T15:27:57.116Z,98638.44
2023-04-25T15:30:27.484Z,98626.56
2023-04-25T15:32:56.484Z,98631.72
2023-04-25T15:35:25.300Z,98631.63
2023-04-25T15:37:54.318Z,98627.94
2023-04-25T15:40:23.137Z,98626.38
2023-04-25T15:42:53.218Z,98617.88
2023-04-25T15:45:26.430Z,98614.31
2023-04-25T15:47:58.106Z,98617.88
2023-04-25T15:50:27.503Z,98618.66
2023-04-25T15:52:56.323Z,98622.78
2023-04-25T15:55:27.109Z,98616.72
2023-04-25T15:57:56.048Z,98619.25
2023-04-25T16:00:24.921Z,98625.19
2023-04-25T16:02:53.986Z,98621.81
2023-04-25T16:05:24.431Z,98621.13
2023-04-25T16:07:54.306Z,98614.38
2023-04-25T16:10:23.093Z,98623.13
2023-04-25T16:12:52.750Z,98623.13
2023-04-25T16:15:21.682Z,98584.44
2023-04-25T16:17:50.450Z,98625.97
2023-04-25T16:20:19.326Z,98627.66
2023-04-25T16:22:49.611Z,98635.09
2023-04-25T16:25:18.546Z,98627.94
2023-04-25T16:27:47.250Z,98631.28
2023-04-25T16:30:16.303Z,98626.16
2023-04-25T16:32:45.749Z,98616.09
2023-04-25T16:35:14.974Z,98630.94
2023-04-25T16:37:43.759Z,98624.41
2023-04-25T16:40:14.513Z,98631.41
2023-04-25T16:42:43.286Z,98634.16
2023-04-25T16:45:13.373Z,98626.59
2023-04-25T16:47:42.112Z,98630.22
2023-04-25T16:50:11.578Z,98633.72
2023-04-25T16:52:40.546Z,98630.47
2023-04-25T16:55:10.853Z,98640.88
2023-04-25T16:57:41.002Z,98645.41
2023-04-25T17:00:11.146Z,98647.38
2023-04-25T17:02:40.147Z,98649.34
2023-04-25T17:05:09.673Z,98641.72
2023-04-25T17:07:38.421Z,98645.28
2023-04-25T17:10:07.732Z,98651.41
2023-04-25T17:12:36.580Z,98657.66
2023-04-25T17:15:08.047Z,98667.28
2023-04-25T17:17:36.934Z,98674.28
2023-04-25T17:20:07.712Z,98682.09
2023-04-25T17:22:37.332Z,98700.28
2023-04-25T17:25:07.185Z,98701.34
2023-04-25T17:27:36.696Z,98705.13
2023-04-25T17:30:08.588Z,98695.28
2023-04-25T17:32:37.448Z,98699.16
2023-04-25T17:35:07.045Z,98702.09
2023-04-25T17:37:37.728Z,98705.72
2023-04-25T17:40:12.260Z,98704.63
2023-04-25T17:42:42.333Z,98709.19
2023-04-25T17:45:13.960Z,98709.19
2023-04-25T17:47:42.871Z,98713.63
2023-04-25T17:50:12.908Z,98713.56
2023-04-25T17:52:42.084Z,98719.50
2023-04-25T17:55:11.157Z,98722.03
2023-04-25T17:57:40.076Z,98725.56
2023-04-25T18:00:12.201Z,98722.28
2023-04-25T18:02:42.503Z,98736.16
2023-04-25T18:05:11.743Z,98736.38
2023-04-25T18:07:40.766Z,98745.09
2023-04-25T18:10:12.269Z,98753.94
2023-04-25T18:12:41.138Z,98759.34
2023-04-25T18:15:11.050Z,98761.19
2023-04-25T18:17:41.671Z,98767.25
2023-04-25T18:20:15.289Z,98769.84
2023-04-25T18:22:46.746Z,98773.31
2023-04-25T18:25:15.678Z,98772.56
2023-04-25T18:27:45.189Z,98777.72
2023-04-25T18:30:14.768Z,98778.56
2023-04-25T18:32:44.976Z,98775.31
2023-04-25T18:35:14.473Z,98773.72
2023-04-25T18:37:43.230Z,98773.00
2023-04-25T18:40:14.283Z,98774.88
2023-04-25T18:42:43.794Z,98783.34
2023-04-25T18:45:13.231Z,98774.72
2023-04-25T18:47:42.127Z,98781.44
2023-04-25T18:50:13.108Z,98782.38
2023-04-25T18:52:41.985Z,98782.34
2023-04-25T18:55:11.722Z,98784.84
2023-04-25T18:57:41.040Z,98789.81
2023-04-25T19:00:11.440Z,98794.91
2023-04-25T19:02:40.344Z,98799.09
2023-04-25T19:05:12.060Z,98809.31
2023-04-25T19:07:41.247Z,98811.00
2023-04-25T19:10:11.072Z,98808.47
2023-04-25T19:12:40.465Z,98812.91
2023-04-25T19:15:10.032Z,98816.38
2023-04-25T19:17:39.252Z,98813.06
2023-04-25T19:20:09.627Z,98819.13
2023-04-25T19:22:39.867Z,98816.81
2023-04-25T19:25:11.013Z,98826.44
2023-04-25T19:27:40.188Z,98822.31
2023-04-25T19:30:11.085Z,98822.56
2023-04-25T19:32:40.781Z,98827.72
2023-04-25T19:35:11.795Z,98829.56
2023-04-25T19:37:46.846Z,98833.84
2023-04-25T19:40:17.286Z,98834.91
2023-04-25T19:42:46.637Z,98832.50
2023-04-25T19:45:15.423Z,98838.56
2023-04-25T19:47:45.215Z,98847.03
2023-04-25T19:50:14.292Z,98837.69
2023-04-25T19:52:44.568Z,98843.47
2023-04-25T19:55:13.361Z,98843.47
2023-04-25T19:57:42.106Z,98850.28
2023-04-25T20:00:14.623Z,98856.91
2023-04-25T20:02:45.619Z,98855.03
2023-04-25T20:05:16.586Z,98854.97
2023-04-25T20:07:46.934Z,98861.72
2023-04-25T20:10:16.743Z,98865.16
2023-04-25T20:12:45.552Z,98857.53
2023-04-25T20:15:14.588Z,98858.41
2023-04-25T20:17:43.363Z,98867.84
2023-04-25T20:20:13.241Z,98865.38
2023-04-25T20:22:41.753Z,98867.03
2023-04-25T20:25:13.646Z,98861.09
2023-04-25T20:27:42.510Z,98864.53
2023-04-25T20:30:12.271Z,98864.47
2023-04-25T20:32:41.780Z,98866.94
2023-04-25T20:35:11.309Z,98866.88
2023-04-25T20:37:40.129Z,98863.41
2023-04-25T20:40:12.054Z,98864.19
2023-04-25T20:42:40.941Z,98867.50
2023-04-25T20:45:13.569Z,98876.00
2023-04-25T20:47:43.025Z,98867.47
2023-04-25T20:50:12.603Z,98878.44
2023-04-25T20:52:41.996Z,98880.97
2023-04-25T20:55:12.300Z,98876.72
2023-04-25T20:57:41.109Z,98879.09
2023-04-25T21:00:17.146Z,98879.03
2023-04-25T21:02:47.464Z,98876.44
2023-04-25T21:05:16.718Z,98878.19
2023-04-25T21:07:45.842Z,98880.69
2023-04-25T21:10:16.293Z,98879.78
2023-04-25T21:12:48.353Z,98881.47
2023-04-25T21:15:20.601Z,98876.31
2023-04-25T21:17:49.884Z,98877.16
2023-04-25T21:20:20.586Z,98881.41
2023-04-25T21:22:53.500Z,98887.38
2023-04-25T21:25:31.274Z,98891.69
2023-04-25T21:28:02.555Z,98889.97
2023-04-25T21:30:31.412Z,98890.09
2023-04-25T21:33:00.736Z,98888.41
2023-04-25T21:35:29.787Z,98891.00
2023-04-25T21:37:58.551Z,98895.28
2023-04-25T21:40:28.848Z,98905.59
2023-04-25T21:42:58.310Z,98910.72
2023-04-25T21:45:29.268Z,98907.38
2023-04-25T21:47:58.158Z,98912.50
2023-04-25T21:50:27.008Z,98910.81
2023-04-25T21:52:59.248Z,98911.69
2023-04-25T21:55:29.875Z,98913.38
2023-04-25T21:57:58.780Z,98912.66
2023-04-25T22:00:27.926Z,98920.41
2023-04-25T22:02:56.847Z,98917.88
2023-04-25T22:05:26.763Z,98922.94
2023-04-25T22:07:57.992Z,98933.13
2023-04-25T22:10:28.604Z,98925.63
2023-04-25T22:12:59.230Z,98934.88
2023-04-25T22:15:29.722Z,98941.72
2023-04-25T22:17:58.796Z,98939.16
2023-04-25T22:20:28.203Z,98929.00
2023-04-25T22:22:57.110Z,98950.31
2023-04-25T22:25:26.304Z,98958.00
2023-04-25T22:27:57.931Z,98965.69
2023-04-25T22:30:27.925Z,98970.84
2023-04-25T22:32:58.564Z,98977.72
2023-04-25T22:35:27.423Z,98968.47
2023-04-25T22:37:56.466Z,98969.38
2023-04-25T22:40:25.498Z,98977.94
2023-04-25T22:42:54.551Z,98981.34
2023-04-25T22:45:24.720Z,98975.44
2023-04-25T22:47:54.045Z,98983.16
2023-04-25T22:50:22.976Z,98986.63
2023-04-25T22:52:51.854Z,98984.00
2023-04-25T22:55:20.621Z,98991.66
2023-04-25T22:57:49.399Z,98989.91
2023-04-25T23:00:20.489Z,98993.38
2023-04-25T23:02:51.251Z,98986.59
2023-04-25T23:05:20.249Z,98993.41
2023-04-25T23:07:50.012Z,98992.47
2023-04-25T23:10:20.084Z,98995.91
2023-04-25T23:12:48.864Z,99005.22
2023-04-25T23:15:18.169Z,99005.25
2023-04-25T23:17:46.979Z,99010.38
2023-04-25T23:20:17.407Z,98999.41
2023-04-25T23:22:46.147Z,99000.31
2023-04-25T23:25:15.106Z,99015.56
2023-04-25T23:27:45.817Z,99020.66
2023-04-25T23:30:15.485Z,99020.69
2023-04-25T23:32:44.196Z,99021.53
2023-04-25T23:35:13.363Z,99025.81
2023-04-25T23:37:43.508Z,99027.53
2023-04-25T23:40:13.480Z,99036.91
2023-04-25T23:42:42.444Z,99047.97
2023-04-25T23:45:11.552Z,99034.50
2023-04-25T23:47:40.392Z,99046.41
2023-04-25T23:50:10.240Z,99049.88
2023-04-25T23:52:38.705Z,99040.59
2023-04-25T23:55:09.984Z,99049.13
2023-04-25T23:57:38.769Z,99049.94
